Time;durP1;ratioP1;P1;durP2;ratioP2;P2;SDS_P1;SDS_P2;PMS_P1;PMS_P2;Temp;Humidity;BMP_temperature;BMP_pressure;BME280_temperature;BME280_humidity;BME280_pressure;Samples;Min_cycle;Max_cycle;Signal;HPM_P1;HPM_P2
2021/12/13 00:00:55;;;;;;;0.30;0.30;;;;;;;;;;5028577;28;20028;-71
2021/12/13 00:03:26;;;;;;;0.20;0.20;;;;;;;;;;5028525;28;20037;-70
2021/12/13 00:05:55;;;;;;;2.67;0.80;;;;;;;;;;5044566;28;20040;-70
2021/12/13 00:08:27;;;;;;;1.88;0.85;;;;;;;;;;5048182;28;20059;-71
2021/12/13 00:11:01;;;;;;;0.57;0.57;;;;;;;;;;5046168;28;20024;-71
2021/12/13 00:13:37;;;;;;;0.82;0.82;;;;;;;;;;5029836;28;20116;-70
2021/12/13 00:16:04;;;;;;;1.55;0.57;;;;;;;;;;5037382;28;20080;-71
2021/12/13 00:18:32;;;;;;;0.32;0.32;;;;;;;;;;5024486;28;20030;-70
2021/12/13 00:21:05;;;;;;;0.77;0.77;;;;;;;;;;5029343;28;20107;-71
2021/12/13 00:23:33;;;;;;;0.73;0.73;;;;;;;;;;5040540;28;20130;-71
2021/12/13 00:26:00;;;;;;;0.32;0.32;;;;;;;;;;5024427;28;20029;-70
2021/12/13 00:28:31;;;;;;;0.52;0.52;;;;;;;;;;5038701;28;20066;-71
2021/12/13 00:31:02;;;;;;;0.85;0.85;;;;;;;;;;5030450;28;20033;-71
2021/12/13 00:33:37;;;;;;;0.30;0.30;;;;;;;;;;5032660;28;20045;-70
2021/12/13 00:36:10;;;;;;;0.80;0.43;;;;;;;;;;5041839;28;20086;-70
2021/12/13 00:38:42;;;;;;;0.32;0.32;;;;;;;;;;5040034;28;20026;-70
2021/12/13 00:41:11;;;;;;;14.85;1.27;;;;;;;;;;5027531;28;20032;-70
2021/12/13 00:43:38;;;;;;;1.15;0.85;;;;;;;;;;5026550;28;20033;-71
2021/12/13 00:46:07;;;;;;;0.50;0.50;;;;;;;;;;5042102;28;20036;-71
2021/12/13 00:48:36;;;;;;;1.85;1.15;;;;;;;;;;5034696;28;20029;-71
2021/12/13 00:51:04;;;;;;;0.55;0.55;;;;;;;;;;5041762;28;20029;-70
2021/12/13 00:53:34;;;;;;;0.47;0.47;;;;;;;;;;5054399;28;20072;-70
2021/12/13 00:56:00;;;;;;;1.50;0.52;;;;;;;;;;5046432;28;20033;-71
2021/12/13 00:58:26;;;;;;;0.20;0.20;;;;;;;;;;5043200;28;20116;-71
2021/12/13 01:00:55;;;;;;;0.35;0.35;;;;;;;;;;5037515;28;20030;-71
2021/12/13 01:03:24;;;;;;;2.55;0.68;;;;;;;;;;5029817;28;20022;-71
2021/12/13 01:06:10;;;;;;;0.40;0.40;;;;;;;;;;5023805;28;20044;-71
2021/12/13 01:08:55;;;;;;;0.55;0.55;;;;;;;;;;5036379;28;20881;-71
2021/12/13 01:11:36;;;;;;;0.57;0.57;;;;;;;;;;5035399;28;20148;-71
2021/12/13 01:14:21;;;;;;;0.38;0.38;;;;;;;;;;5034433;28;20029;-71
2021/12/13 01:19:28;;;;;;;0.77;0.77;;;;;;;;;;5034505;28;20029;-71
2021/12/13 01:22:01;;;;;;;0.50;0.50;;;;;;;;;;5025802;28;20099;-71
2021/12/13 01:27:34;;;;;;;0.55;0.40;;;;;;;;;;5016172;28;20203;-71
2021/12/13 01:30:01;;;;;;;3.40;1.58;;;;;;;;;;5037704;28;20357;-71
2021/12/13 01:32:35;;;;;;;1.85;1.75;;;;;;;;;;5032714;28;20431;-70
2021/12/13 01:35:01;;;;;;;0.68;0.60;;;;;;;;;;5024790;28;20029;-71
2021/12/13 01:37:29;;;;;;;1.73;0.57;;;;;;;;;;5026228;28;20674;-71
2021/12/13 01:39:56;;;;;;;0.73;0.50;;;;;;;;;;5031843;28;20083;-71
2021/12/13 01:42:25;;;;;;;1.48;0.73;;;;;;;;;;5021493;28;20384;-71
2021/12/13 01:44:53;;;;;;;3.75;2.47;;;;;;;;;;5026139;28;20040;-71
2021/12/13 01:47:22;;;;;;;0.60;0.60;;;;;;;;;;5023001;28;20053;-71
2021/12/13 01:49:52;;;;;;;7.53;2.05;;;;;;;;;;5034506;28;20428;-71
2021/12/13 01:52:23;;;;;;;3.70;1.65;;;;;;;;;;5024566;28;20036;-71
2021/12/13 01:54:49;;;;;;;1.25;0.95;;;;;;;;;;5024828;28;20099;-71
2021/12/13 01:59:53;;;;;;;0.50;0.50;;;;;;;;;;5033867;28;20044;-71
2021/12/13 02:02:24;;;;;;;2.75;1.23;;;;;;;;;;5028032;28;20479;-71
2021/12/13 02:05:10;;;;;;;2.00;1.75;;;;;;;;;;5046674;28;20043;-70
2021/12/13 02:07:38;;;;;;;0.65;0.65;;;;;;;;;;5028818;28;20472;-71
2021/12/13 02:10:06;;;;;;;1.08;1.08;;;;;;;;;;5026600;28;20083;-72
2021/12/13 02:12:33;;;;;;;0.88;0.85;;;;;;;;;;5033191;28;20082;-71
2021/12/13 02:17:45;;;;;;;1.90;1.75;;;;;;;;;;5023167;28;20546;-72
2021/12/13 02:20:14;;;;;;;1.38;1.27;;;;;;;;;;5022510;28;20025;-71
2021/12/13 02:22:48;;;;;;;0.80;0.80;;;;;;;;;;5039200;28;20124;-72
2021/12/13 02:25:20;;;;;;;0.38;0.38;;;;;;;;;;5031854;28;20120;-72
2021/12/13 02:28:12;;;;;;;1.50;1.40;;;;;;;;;;5043099;28;20040;-72
2021/12/13 02:30:50;;;;;;;0.93;0.75;;;;;;;;;;5026647;28;20091;-72
2021/12/13 02:33:20;;;;;;;0.82;0.77;;;;;;;;;;5034772;28;20033;-71
2021/12/13 02:35:47;;;;;;;1.73;1.58;;;;;;;;;;5041113;28;20525;-72
2021/12/13 02:38:15;;;;;;;0.77;0.77;;;;;;;;;;5038522;28;20030;-71
2021/12/13 02:40:41;;;;;;;0.93;0.68;;;;;;;;;;5025742;28;20029;-72
2021/12/13 02:43:08;;;;;;;1.10;1.00;;;;;;;;;;5026821;28;20104;-71
2021/12/13 02:45:42;;;;;;;1.15;1.02;;;;;;;;;;5037515;28;20049;-71
2021/12/13 02:48:15;;;;;;;2.20;0.63;;;;;;;;;;5028974;28;20041;-72
2021/12/13 02:50:48;;;;;;;0.88;0.88;;;;;;;;;;5025877;28;20033;-71
2021/12/13 02:53:16;;;;;;;0.35;0.30;;;;;;;;;;5028416;28;20037;-71
2021/12/13 02:55:42;;;;;;;0.50;0.50;;;;;;;;;;5025541;28;20063;-71
2021/12/13 02:58:10;;;;;;;0.55;0.55;;;;;;;;;;5023635;28;20032;-72
2021/12/13 03:00:41;;;;;;;1.17;1.05;;;;;;;;;;5025508;28;20053;-72
2021/12/13 03:03:10;;;;;;;5.95;3.55;;;;;;;;;;5021038;28;20041;-72
2021/12/13 03:05:39;;;;;;;1.35;1.10;;;;;;;;;;5021490;28;20381;-71
2021/12/13 03:08:10;;;;;;;0.88;0.82;;;;;;;;;;5042785;28;20021;-71
2021/12/13 03:10:39;;;;;;;1.43;1.30;;;;;;;;;;5040798;28;20069;-72
2021/12/13 03:13:04;;;;;;;1.50;0.28;;;;;;;;;;5041268;28;20255;-71
2021/12/13 03:15:32;;;;;;;0.40;0.40;;;;;;;;;;5037604;28;20446;-72
2021/12/13 03:18:00;;;;;;;0.13;0.13;;;;;;;;;;5026068;28;20727;-71
2021/12/13 03:20:33;;;;;;;0.30;0.30;;;;;;;;;;5025827;28;20118;-71
2021/12/13 03:23:13;;;;;;;1.63;1.52;;;;;;;;;;5026790;28;20060;-71
2021/12/13 03:25:39;;;;;;;0.90;0.90;;;;;;;;;;5032250;28;20037;-71
2021/12/13 03:28:13;;;;;;;2.42;2.20;;;;;;;;;;5049299;28;20036;-71
2021/12/13 03:31:00;;;;;;;8.10;0.98;;;;;;;;;;5047085;28;20029;-71
2021/12/13 03:33:45;;;;;;;0.25;0.20;;;;;;;;;;5029287;28;20507;-71
2021/12/13 03:36:14;;;;;;;1.10;0.95;;;;;;;;;;5041823;28;20132;-71
2021/12/13 03:38:42;;;;;;;0.80;0.80;;;;;;;;;;5036872;28;20063;-72
2021/12/13 03:41:10;;;;;;;0.77;0.77;;;;;;;;;;5035354;28;20130;-72
2021/12/13 03:43:41;;;;;;;1.20;0.73;;;;;;;;;;5028799;28;20033;-71
2021/12/13 03:46:08;;;;;;;0.20;0.20;;;;;;;;;;5034511;28;20041;-72
2021/12/13 03:48:35;;;;;;;1.75;1.63;;;;;;;;;;5035965;28;20025;-71
2021/12/13 03:51:03;;;;;;;0.55;0.45;;;;;;;;;;5041147;28;20132;-71
2021/12/13 03:53:32;;;;;;;3.38;1.15;;;;;;;;;;5023154;28;20021;-72
2021/12/13 03:56:02;;;;;;;0.13;0.13;;;;;;;;;;5030345;28;20034;-71
2021/12/13 03:58:29;;;;;;;1.23;1.17;;;;;;;;;;5023008;28;20074;-72
2021/12/13 04:00:58;;;;;;;0.68;0.68;;;;;;;;;;5023466;28;20112;-72
2021/12/13 04:03:24;;;;;;;1.73;1.15;;;;;;;;;;5041820;28;20468;-72
2021/12/13 04:05:51;;;;;;;0.80;0.80;;;;;;;;;;5043030;28;20044;-71
2021/12/13 04:08:18;;;;;;;1.48;1.25;;;;;;;;;;5045142;28;20029;-72
2021/12/13 04:10:49;;;;;;;0.93;0.40;;;;;;;;;;5029537;28;20902;-71
2021/12/13 04:13:16;;;;;;;1.88;1.77;;;;;;;;;;5041250;28;20022;-71
2021/12/13 04:16:05;;;;;;;0.30;0.30;;;;;;;;;;5049727;28;20040;-71
2021/12/13 04:21:12;;;;;;;1.10;0.90;;;;;;;;;;5048021;28;20025;-71
2021/12/13 04:23:38;;;;;;;0.35;0.32;;;;;;;;;;5030837;28;20108;-71
2021/12/13 04:26:07;;;;;;;2.25;1.70;;;;;;;;;;5026543;28;20052;-72
2021/12/13 04:28:37;;;;;;;6.45;1.45;;;;;;;;;;5029099;28;20025;-72
2021/12/13 04:31:07;;;;;;;1.05;0.95;;;;;;;;;;5029957;28;20049;-71
2021/12/13 04:33:42;;;;;;;1.33;1.08;;;;;;;;;;5028739;28;20033;-72
2021/12/13 04:36:10;;;;;;;0.30;0.25;;;;;;;;;;5045120;28;20039;-71
2021/12/13 04:38:41;;;;;;;1.77;1.65;;;;;;;;;;5038091;28;20025;-71
2021/12/13 04:41:07;;;;;;;2.72;1.85;;;;;;;;;;5022499;28;20427;-71
2021/12/13 04:43:35;;;;;;;1.27;1.08;;;;;;;;;;5029614;28;20095;-71
2021/12/13 04:46:04;;;;;;;0.32;0.32;;;;;;;;;;5027195;28;20022;-71
2021/12/13 04:48:32;;;;;;;2.60;1.42;;;;;;;;;;5021889;28;20033;-71
2021/12/13 04:51:03;;;;;;;0.50;0.50;;;;;;;;;;5036401;28;20028;-71
2021/12/13 04:53:28;;;;;;;1.20;0.75;;;;;;;;;;5043548;28;20480;-71
2021/12/13 04:55:56;;;;;;;1.00;0.98;;;;;;;;;;5038808;28;20033;-72
2021/12/13 04:58:22;;;;;;;0.60;0.60;;;;;;;;;;5045699;28;20028;-71
2021/12/13 05:00:51;;;;;;;1.02;1.02;;;;;;;;;;5035465;28;20021;-71
2021/12/13 05:03:20;;;;;;;3.75;2.42;;;;;;;;;;5032725;28;20033;-71
2021/12/13 05:05:46;;;;;;;2.88;2.58;;;;;;;;;;5046945;28;20116;-71
2021/12/13 05:08:15;;;;;;;1.90;1.30;;;;;;;;;;5037524;28;20117;-71
2021/12/13 05:10:44;;;;;;;4.57;2.55;;;;;;;;;;5028499;28;20112;-72
2021/12/13 05:13:12;;;;;;;0.65;0.65;;;;;;;;;;5025684;28;20503;-71
2021/12/13 05:15:41;;;;;;;1.20;1.20;;;;;;;;;;5028076;28;20041;-71
2021/12/13 05:18:09;;;;;;;1.23;1.00;;;;;;;;;;5025262;28;20079;-71
2021/12/13 05:20:37;;;;;;;0.50;0.50;;;;;;;;;;5036957;28;20053;-71
2021/12/13 05:23:06;;;;;;;0.68;0.68;;;;;;;;;;5036158;28;20049;-71
2021/12/13 05:25:34;;;;;;;2.47;1.50;;;;;;;;;;5031331;28;20993;-71
2021/12/13 05:28:23;;;;;;;2.63;2.00;;;;;;;;;;5035241;28;20029;-71
2021/12/13 05:30:57;;;;;;;5.22;1.20;;;;;;;;;;5039728;28;20048;-71
2021/12/13 05:33:23;;;;;;;1.08;1.08;;;;;;;;;;5038048;28;20114;-71
2021/12/13 05:35:51;;;;;;;0.40;0.35;;;;;;;;;;5033275;28;20086;-71
2021/12/13 05:38:29;;;;;;;1.00;1.00;;;;;;;;;;5031149;28;20112;-72
2021/12/13 05:40:57;;;;;;;0.43;0.43;;;;;;;;;;5034750;28;20075;-72
2021/12/13 05:43:28;;;;;;;0.65;0.47;;;;;;;;;;5045760;28;20025;-71
2021/12/13 05:45:58;;;;;;;0.43;0.43;;;;;;;;;;5036250;28;20040;-71
2021/12/13 05:48:36;;;;;;;1.63;1.52;;;;;;;;;;5026461;28;20037;-72
2021/12/13 05:51:05;;;;;;;0.47;0.47;;;;;;;;;;5026792;28;20707;-71
2021/12/13 05:53:32;;;;;;;1.08;1.08;;;;;;;;;;5029857;28;20033;-71
2021/12/13 05:56:04;;;;;;;5.38;1.33;;;;;;;;;;5032278;28;20025;-71
2021/12/13 05:58:42;;;;;;;0.57;0.57;;;;;;;;;;5033179;28;20067;-71
2021/12/13 06:01:12;;;;;;;1.13;1.02;;;;;;;;;;5026210;28;20048;-71
2021/12/13 06:03:40;;;;;;;0.98;0.98;;;;;;;;;;5026505;28;20064;-71
2021/12/13 06:06:10;;;;;;;0.75;0.63;;;;;;;;;;5027032;28;20034;-72
2021/12/13 06:08:40;;;;;;;1.10;1.10;;;;;;;;;;5023657;28;20025;-71
2021/12/13 06:11:11;;;;;;;1.90;0.75;;;;;;;;;;5020833;28;20045;-72
2021/12/13 06:13:43;;;;;;;1.58;1.45;;;;;;;;;;5020808;28;20036;-72
2021/12/13 06:16:33;;;;;;;0.75;0.75;;;;;;;;;;5020826;28;20025;-71
2021/12/13 06:19:02;;;;;;;2.17;1.73;;;;;;;;;;5025824;28;20037;-71
2021/12/13 06:21:28;;;;;;;0.52;0.52;;;;;;;;;;5022810;28;20116;-72
2021/12/13 06:23:54;;;;;;;1.30;1.15;;;;;;;;;;5033445;28;20137;-71
2021/12/13 06:26:25;;;;;;;3.45;2.15;;;;;;;;;;5028537;28;20091;-72
2021/12/13 06:28:57;;;;;;;0.65;0.65;;;;;;;;;;5029331;28;20031;-71
2021/12/13 06:31:23;;;;;;;0.93;0.85;;;;;;;;;;5039077;28;20037;-71
2021/12/13 06:33:57;;;;;;;0.52;0.40;;;;;;;;;;5034029;28;20120;-71
2021/12/13 06:36:41;;;;;;;0.88;0.82;;;;;;;;;;5025640;28;20033;-71
2021/12/13 06:39:12;;;;;;;2.53;1.67;;;;;;;;;;5027738;28;20104;-71
2021/12/13 06:41:38;;;;;;;1.13;1.02;;;;;;;;;;5026009;28;20105;-71
2021/12/13 06:44:24;;;;;;;2.63;1.50;;;;;;;;;;5031343;28;20087;-71
2021/12/13 06:46:56;;;;;;;1.23;1.00;;;;;;;;;;5020611;28;20502;-71
2021/12/13 06:49:33;;;;;;;1.90;1.80;;;;;;;;;;5027439;28;20029;-72
2021/12/13 06:51:59;;;;;;;1.02;1.02;;;;;;;;;;5038502;28;20029;-71
2021/12/13 06:54:39;;;;;;;0.80;0.80;;;;;;;;;;5036484;28;20112;-72
2021/12/13 06:57:32;;;;;;;3.05;2.00;;;;;;;;;;5025728;28;20034;-72
2021/12/13 07:00:05;;;;;;;3.30;1.67;;;;;;;;;;5027690;28;20395;-71
2021/12/13 07:02:43;;;;;;;1.50;1.40;;;;;;;;;;5035177;28;20503;-71
2021/12/13 07:05:27;;;;;;;0.60;0.60;;;;;;;;;;5030153;28;20033;-72
2021/12/13 07:08:07;;;;;;;0.43;0.43;;;;;;;;;;5023808;28;20083;-70
2021/12/13 07:10:38;;;;;;;1.42;1.33;;;;;;;;;;5035255;28;20036;-71
2021/12/13 07:13:06;;;;;;;2.08;1.38;;;;;;;;;;5030732;28;20034;-71
2021/12/13 07:15:38;;;;;;;0.35;0.35;;;;;;;;;;5030279;28;20484;-71
2021/12/13 07:18:10;;;;;;;2.25;1.52;;;;;;;;;;5026243;28;20108;-71
2021/12/13 07:20:38;;;;;;;0.73;0.73;;;;;;;;;;5017781;28;20037;-71
2021/12/13 07:23:04;;;;;;;1.25;1.02;;;;;;;;;;5025202;28;20230;-70
2021/12/13 07:25:35;;;;;;;4.05;1.77;;;;;;;;;;5040107;28;20056;-70
2021/12/13 07:28:02;;;;;;;1.75;1.65;;;;;;;;;;5036583;28;20495;-70
2021/12/13 07:30:29;;;;;;;5.15;2.42;;;;;;;;;;5040460;28;20551;-70
2021/12/13 07:33:01;;;;;;;0.65;0.65;;;;;;;;;;5040223;28;20040;-71
2021/12/13 07:35:30;;;;;;;1.33;0.80;;;;;;;;;;5036136;28;20400;-71
2021/12/13 07:37:58;;;;;;;11.77;2.72;;;;;;;;;;5035013;28;20021;-71
2021/12/13 07:40:29;;;;;;;1.98;1.52;;;;;;;;;;5036317;28;20017;-71
2021/12/13 07:42:55;;;;;;;;;;;;;;;;;;5032319;28;20075;-71
2021/12/13 07:45:22;;;;;;;0.35;0.35;;;;;;;;;;5038653;28;19917;-71
2021/12/13 07:47:50;;;;;;;3.30;0.75;;;;;;;;;;5032208;28;20463;-71
2021/12/13 07:50:19;;;;;;;4.43;2.10;;;;;;;;;;5025292;28;20030;-70
2021/12/13 07:52:45;;;;;;;1.38;1.27;;;;;;;;;;5028286;28;20056;-72
2021/12/13 07:55:16;;;;;;;3.30;2.67;;;;;;;;;;5030292;28;20057;-71
2021/12/13 07:57:42;;;;;;;2.73;1.33;;;;;;;;;;5040334;28;20055;-71
2021/12/13 08:00:14;;;;;;;0.85;0.85;;;;;;;;;;5032094;28;20253;-72
2021/12/13 08:02:40;;;;;;;;;;;;;;;;;;5032175;28;20029;-71
2021/12/13 08:05:11;;;;;;;0.20;0.20;;;;;;;;;;5051434;28;19915;-71
2021/12/13 08:07:51;;;;;;;3.30;1.65;;;;;;;;;;5035737;28;20028;-71
2021/12/13 08:10:28;;;;;;;0.28;0.28;;;;;;;;;;5034042;28;20029;-73
2021/12/13 08:13:03;;;;;;;1.85;1.75;;;;;;;;;;5035974;28;20029;-74
2021/12/13 08:15:49;;;;;;;0.85;0.80;;;;;;;;;;5039128;28;20070;-72
2021/12/13 08:18:23;;;;;;;1.17;0.80;;;;;;;;;;5026048;28;20558;-72
2021/12/13 08:20:51;;;;;;;1.38;1.27;;;;;;;;;;5027026;28;20502;-71
2021/12/13 08:23:22;;;;;;;1.50;1.40;;;;;;;;;;5031044;28;20041;-71
2021/12/13 08:25:50;;;;;;;1.20;1.10;;;;;;;;;;5029728;28;20522;-71
2021/12/13 08:28:21;;;;;;;2.03;1.65;;;;;;;;;;5036083;28;20404;-71
2021/12/13 08:30:53;;;;;;;1.67;1.58;;;;;;;;;;5027718;28;20057;-71
2021/12/13 08:33:22;;;;;;;4.03;1.55;;;;;;;;;;5034351;28;20044;-73
2021/12/13 08:35:53;;;;;;;1.48;1.38;;;;;;;;;;5041376;28;20116;-72
2021/12/13 08:38:38;;;;;;;1.15;1.02;;;;;;;;;;5030251;28;20405;-72
2021/12/13 08:41:16;;;;;;;2.17;2.05;;;;;;;;;;5039960;28;20036;-72
2021/12/13 08:43:44;;;;;;;0.77;0.63;;;;;;;;;;5041118;28;20025;-72
2021/12/13 08:46:12;;;;;;;0.30;0.30;;;;;;;;;;5036244;28;20056;-72
2021/12/13 08:48:49;;;;;;;2.17;1.73;;;;;;;;;;5032285;28;20638;-72
2021/12/13 08:51:20;;;;;;;0.50;0.50;;;;;;;;;;5022737;28;20058;-69
2021/12/13 08:53:48;;;;;;;1.00;0.70;;;;;;;;;;5036511;28;20033;-71
2021/12/13 08:56:23;;;;;;;1.52;1.45;;;;;;;;;;5027354;28;20047;-69
2021/12/13 08:58:51;;;;;;;0.40;0.40;;;;;;;;;;5031967;28;20231;-72
2021/12/13 09:01:17;;;;;;;0.57;0.57;;;;;;;;;;5030957;28;20049;-69
2021/12/13 09:03:48;;;;;;;3.08;1.58;;;;;;;;;;5031114;28;20049;-69
2021/12/13 09:06:16;;;;;;;4.17;1.43;;;;;;;;;;5038115;28;20075;-69
2021/12/13 09:08:44;;;;;;;3.10;0.85;;;;;;;;;;5032511;28;20467;-68
2021/12/13 09:11:10;;;;;;;0.82;0.82;;;;;;;;;;5025285;28;20029;-69
2021/12/13 09:13:42;;;;;;;1.15;0.68;;;;;;;;;;5027575;28;20026;-70
2021/12/13 09:16:10;;;;;;;2.63;1.77;;;;;;;;;;5025449;28;20025;-70
2021/12/13 09:18:36;;;;;;;0.60;0.60;;;;;;;;;;5029547;28;20074;-70
2021/12/13 09:21:03;;;;;;;2.13;1.88;;;;;;;;;;5025252;28;20033;-69
2021/12/13 09:23:31;;;;;;;1.58;1.48;;;;;;;;;;5033692;28;20055;-70
2021/12/13 09:26:03;;;;;;;0.57;0.57;;;;;;;;;;5023017;28;20472;-69
2021/12/13 09:28:32;;;;;;;3.63;1.52;;;;;;;;;;5021410;28;20053;-69
2021/12/13 09:30:57;;;;;;;2.83;2.42;;;;;;;;;;5021324;28;20053;-69
2021/12/13 09:33:27;;;;;;;0.08;0.08;;;;;;;;;;5025752;28;20503;-69
2021/12/13 09:35:58;;;;;;;1.15;1.15;;;;;;;;;;5024643;28;20043;-70
2021/12/13 09:38:24;;;;;;;;;;;;;;;;;;5030750;28;20025;-69
2021/12/13 09:40:53;;;;;;;0.40;0.40;;;;;;;;;;5036299;28;19912;-72
2021/12/13 09:43:20;;;;;;;1.15;1.05;;;;;;;;;;5043088;28;20167;-72
2021/12/13 09:45:53;;;;;;;0.75;0.75;;;;;;;;;;5034104;28;20035;-72
2021/12/13 09:48:27;;;;;;;4.70;2.05;;;;;;;;;;5035008;28;20036;-71
2021/12/13 09:50:56;;;;;;;0.20;0.20;;;;;;;;;;5020836;28;20640;-72
2021/12/13 09:53:25;;;;;;;0.28;0.28;;;;;;;;;;5020087;28;20061;-71
2021/12/13 09:55:51;;;;;;;0.85;0.55;;;;;;;;;;5024095;28;20405;-71
2021/12/13 09:58:20;;;;;;;0.30;0.30;;;;;;;;;;5031322;28;20071;-72
2021/12/13 10:00:54;;;;;;;0.70;0.70;;;;;;;;;;5028874;28;20021;-72
2021/12/13 10:03:26;;;;;;;1.95;1.58;;;;;;;;;;5030283;28;20033;-72
2021/12/13 10:05:54;;;;;;;2.72;1.77;;;;;;;;;;5026584;28;20033;-72
2021/12/13 10:08:24;;;;;;;3.58;2.53;;;;;;;;;;5030099;28;20455;-72
2021/12/13 10:10:53;;;;;;;1.88;1.40;;;;;;;;;;5027063;28;20488;-71
2021/12/13 10:13:21;;;;;;;0.17;0.17;;;;;;;;;;5039963;28;20064;-72
2021/12/13 10:15:55;;;;;;;0.63;0.60;;;;;;;;;;5028630;28;20037;-72
2021/12/13 10:18:24;;;;;;;1.38;0.95;;;;;;;;;;5026113;28;20519;-72
2021/12/13 10:20:59;;;;;;;0.05;0.05;;;;;;;;;;5022167;28;20044;-72
2021/12/13 10:23:26;;;;;;;2.42;1.27;;;;;;;;;;5033996;28;20554;-72
2021/12/13 10:25:55;;;;;;;11.13;1.73;;;;;;;;;;5019712;28;20061;-72
2021/12/13 10:28:24;;;;;;;0.10;0.10;;;;;;;;;;5025525;28;20661;-72
2021/12/13 10:30:52;;;;;;;0.10;0.10;;;;;;;;;;5025114;28;20377;-72
2021/12/13 10:33:19;;;;;;;0.80;0.80;;;;;;;;;;5026005;28;20045;-72
2021/12/13 10:35:46;;;;;;;0.30;0.30;;;;;;;;;;5034486;28;20030;-72
2021/12/13 10:38:17;;;;;;;0.60;0.60;;;;;;;;;;5034682;28;20494;-71
2021/12/13 10:40:43;;;;;;;0.22;0.22;;;;;;;;;;5026933;28;20119;-72
2021/12/13 10:43:12;;;;;;;3.05;2.38;;;;;;;;;;5026845;28;20784;-71
2021/12/13 10:45:43;;;;;;;0.93;0.93;;;;;;;;;;5037883;28;20057;-72
2021/12/13 10:48:10;;;;;;;1.92;0.80;;;;;;;;;;5030295;28;20022;-72
2021/12/13 10:50:39;;;;;;;0.40;0.40;;;;;;;;;;5035859;28;20506;-71
2021/12/13 10:53:06;;;;;;;0.40;0.40;;;;;;;;;;5026917;28;20037;-72
2021/12/13 10:55:34;;;;;;;0.77;0.77;;;;;;;;;;5024694;28;20029;-72
2021/12/13 10:58:02;;;;;;;0.80;0.80;;;;;;;;;;5019488;28;20028;-72
2021/12/13 11:00:31;;;;;;;1.48;1.25;;;;;;;;;;5026717;28;20083;-72
2021/12/13 11:03:00;;;;;;;0.38;0.38;;;;;;;;;;5033900;28;20577;-72
2021/12/13 11:05:28;;;;;;;3.03;1.15;;;;;;;;;;5024980;28;20032;-71
2021/12/13 11:07:54;;;;;;;0.57;0.57;;;;;;;;;;5027598;28;20036;-71
2021/12/13 11:10:24;;;;;;;0.63;0.63;;;;;;;;;;5021303;28;20032;-72
2021/12/13 11:12:53;;;;;;;0.20;0.20;;;;;;;;;;5023480;28;20450;-72
2021/12/13 11:15:25;;;;;;;1.17;1.05;;;;;;;;;;5026214;28;20021;-72
2021/12/13 11:17:54;;;;;;;0.17;0.17;;;;;;;;;;5023775;28;20083;-73
2021/12/13 11:20:23;;;;;;;3.10;1.42;;;;;;;;;;5028575;28;20144;-72
2021/12/13 11:22:50;;;;;;;0.55;0.55;;;;;;;;;;5025481;28;20051;-72
2021/12/13 11:25:22;;;;;;;0.40;0.40;;;;;;;;;;5025897;28;20029;-72
2021/12/13 11:27:48;;;;;;;0.17;0.17;;;;;;;;;;5031893;28;20037;-72
2021/12/13 11:30:16;;;;;;;5.40;1.55;;;;;;;;;;5033796;28;20657;-72
2021/12/13 11:32:58;;;;;;;2.60;1.95;;;;;;;;;;5033442;28;20021;-72
2021/12/13 11:35:43;;;;;;;1.35;1.00;;;;;;;;;;5027982;28;20056;-72
2021/12/13 11:38:26;;;;;;;1.58;1.48;;;;;;;;;;5029933;28;20028;-72
2021/12/13 11:41:04;;;;;;;1.48;0.68;;;;;;;;;;5030088;28;20083;-72
2021/12/13 11:43:37;;;;;;;1.42;0.85;;;;;;;;;;5029971;28;20025;-72
2021/12/13 11:46:06;;;;;;;0.88;0.47;;;;;;;;;;5030020;28;20033;-72
2021/12/13 11:49:03;;;;;;;0.55;0.43;;;;;;;;;;5030109;28;20063;-72
2021/12/13 11:51:47;;;;;;;1.17;0.52;;;;;;;;;;5025646;28;20037;-72
2021/12/13 11:54:22;;;;;;;0.35;0.30;;;;;;;;;;5030171;28;20034;-72
2021/12/13 11:56:48;;;;;;;2.08;1.80;;;;;;;;;;5034284;28;20561;-72
2021/12/13 11:59:26;;;;;;;1.15;1.08;;;;;;;;;;5026226;28;20033;-72
2021/12/13 12:02:01;;;;;;;1.95;0.68;;;;;;;;;;5037515;28;20076;-73
2021/12/13 12:04:45;;;;;;;0.20;0.20;;;;;;;;;;5039882;28;20036;-73
2021/12/13 12:07:14;;;;;;;0.52;0.52;;;;;;;;;;5036591;28;20120;-73
2021/12/13 12:09:46;;;;;;;1.67;0.60;;;;;;;;;;5032060;28;20103;-72
2021/12/13 12:12:21;;;;;;;3.40;0.52;;;;;;;;;;5025346;28;20029;-72
2021/12/13 12:14:58;;;;;;;0.50;0.50;;;;;;;;;;5026059;28;20032;-72
2021/12/13 12:17:24;;;;;;;0.95;0.95;;;;;;;;;;5038925;28;20040;-72
2021/12/13 12:19:50;;;;;;;1.00;0.30;;;;;;;;;;5027769;28;20022;-73
2021/12/13 12:22:18;;;;;;;0.30;0.30;;;;;;;;;;5040192;28;20030;-72
2021/12/13 12:24:45;;;;;;;0.90;0.90;;;;;;;;;;5032328;28;20049;-72
2021/12/13 12:27:14;;;;;;;0.50;0.50;;;;;;;;;;5028472;28;20080;-72
2021/12/13 12:29:44;;;;;;;1.85;1.65;;;;;;;;;;5038159;28;20037;-72
2021/12/13 12:32:16;;;;;;;4.85;1.45;;;;;;;;;;5027546;28;20026;-72
2021/12/13 12:34:49;;;;;;;0.35;0.35;;;;;;;;;;5027876;28;20447;-72
2021/12/13 12:37:38;;;;;;;0.35;0.35;;;;;;;;;;5044024;28;20025;-72
2021/12/13 12:40:24;;;;;;;0.10;0.10;;;;;;;;;;5022881;28;20021;-72
2021/12/13 12:42:51;;;;;;;0.65;0.65;;;;;;;;;;5027467;28;20025;-70
2021/12/13 12:45:22;;;;;;;1.00;0.85;;;;;;;;;;5027947;28;20029;-71
2021/12/13 12:47:48;;;;;;;0.30;0.30;;;;;;;;;;5030980;28;20505;-70
2021/12/13 12:50:18;;;;;;;0.10;0.10;;;;;;;;;;5027037;28;20030;-70
2021/12/13 12:52:47;;;;;;;2.83;0.90;;;;;;;;;;5036572;28;20033;-71
2021/12/13 12:55:14;;;;;;;0.28;0.28;;;;;;;;;;5027530;28;20041;-71
2021/12/13 12:57:40;;;;;;;3.05;0.93;;;;;;;;;;5027267;28;20041;-71
2021/12/13 13:00:06;;;;;;;0.95;0.77;;;;;;;;;;5029201;28;20404;-72
2021/12/13 13:02:33;;;;;;;1.55;1.25;;;;;;;;;;5033859;28;20017;-72
2021/12/13 13:05:03;;;;;;;0.77;0.77;;;;;;;;;;5031419;28;20037;-72
2021/12/13 13:07:37;;;;;;;10.10;2.92;;;;;;;;;;5027859;28;20104;-72
2021/12/13 13:10:24;;;;;;;3.63;1.30;;;;;;;;;;5020088;28;20052;-73
2021/12/13 13:12:55;;;;;;;1.90;1.58;;;;;;;;;;5025805;28;20018;-73
2021/12/13 13:15:29;;;;;;;0.40;0.40;;;;;;;;;;5035266;28;20025;-73
2021/12/13 13:18:00;;;;;;;5.25;1.20;;;;;;;;;;5027337;28;20049;-73
2021/12/13 13:20:33;;;;;;;0.20;0.20;;;;;;;;;;5029789;28;20475;-73
2021/12/13 13:23:01;;;;;;;0.08;0.08;;;;;;;;;;5026098;28;20689;-73
2021/12/13 13:25:29;;;;;;;1.55;1.42;;;;;;;;;;5030545;28;20061;-73
2021/12/13 13:27:56;;;;;;;0.08;0.05;;;;;;;;;;5025118;28;20021;-73
2021/12/13 13:30:29;;;;;;;1.35;0.77;;;;;;;;;;5021712;28;20029;-73
2021/12/13 13:32:55;;;;;;;0.35;0.35;;;;;;;;;;5025576;28;20029;-73
2021/12/13 13:35:22;;;;;;;0.32;0.32;;;;;;;;;;5033860;28;20017;-73
2021/12/13 13:37:48;;;;;;;0.60;0.60;;;;;;;;;;5035128;28;20490;-73
2021/12/13 13:40:16;;;;;;;0.32;0.32;;;;;;;;;;5033254;28;20024;-73
2021/12/13 13:42:47;;;;;;;0.47;0.47;;;;;;;;;;5032503;28;20044;-73
2021/12/13 13:45:16;;;;;;;0.10;0.10;;;;;;;;;;5026943;28;20041;-73
2021/12/13 13:47:43;;;;;;;0.55;0.55;;;;;;;;;;5030474;28;20056;-73
2021/12/13 13:50:27;;;;;;;0.38;0.38;;;;;;;;;;5028871;28;20086;-73
2021/12/13 13:52:55;;;;;;;1.23;0.65;;;;;;;;;;5034665;28;20562;-73
2021/12/13 13:55:26;;;;;;;0.75;0.75;;;;;;;;;;5025410;28;20034;-73
2021/12/13 13:57:54;;;;;;;0.90;0.90;;;;;;;;;;5030334;28;20421;-73
2021/12/13 14:00:21;;;;;;;0.70;0.57;;;;;;;;;;5025832;28;20053;-73
2021/12/13 14:02:48;;;;;;;0.52;0.52;;;;;;;;;;5029348;28;20583;-73
2021/12/13 14:05:14;;;;;;;1.60;0.95;;;;;;;;;;5029192;28;20068;-74
2021/12/13 14:07:41;;;;;;;0.25;0.25;;;;;;;;;;5034416;28;20525;-73
2021/12/13 14:10:18;;;;;;;0.38;0.38;;;;;;;;;;5025421;28;20040;-73
2021/12/13 14:12:52;;;;;;;0.30;0.30;;;;;;;;;;5034945;28;20041;-74
2021/12/13 14:15:46;;;;;;;0.43;0.43;;;;;;;;;;5034758;28;20251;-73
2021/12/13 14:18:21;;;;;;;0.80;0.80;;;;;;;;;;5028868;28;20025;-73
2021/12/13 14:20:52;;;;;;;0.25;0.17;;;;;;;;;;5030836;28;20017;-74
2021/12/13 14:23:23;;;;;;;0.75;0.75;;;;;;;;;;5027695;28;20182;-75
2021/12/13 14:25:59;;;;;;;0.93;0.45;;;;;;;;;;5029378;28;20033;-73
2021/12/13 14:28:37;;;;;;;0.65;0.22;;;;;;;;;;5034092;28;20040;-78
2021/12/13 14:31:05;;;;;;;0.38;0.38;;;;;;;;;;5026486;28;20396;-73
2021/12/13 14:33:33;;;;;;;0.00;0.00;;;;;;;;;;5030261;28;20130;-73
2021/12/13 14:36:11;;;;;;;0.65;0.65;;;;;;;;;;5019479;28;20071;-73
2021/12/13 14:38:57;;;;;;;0.65;0.55;;;;;;;;;;5031619;28;20032;-73
2021/12/13 14:41:30;;;;;;;0.63;0.63;;;;;;;;;;5040819;28;20032;-72
2021/12/13 14:44:00;;;;;;;0.10;0.10;;;;;;;;;;5036628;28;20021;-73
2021/12/13 14:46:30;;;;;;;0.95;0.90;;;;;;;;;;5031645;28;20395;-74
2021/12/13 14:49:07;;;;;;;1.10;0.82;;;;;;;;;;5025889;28;20037;-74
2021/12/13 14:51:37;;;;;;;0.45;0.45;;;;;;;;;;5023857;28;20413;-73
2021/12/13 14:54:03;;;;;;;0.10;0.10;;;;;;;;;;5038474;28;20033;-73
2021/12/13 14:56:29;;;;;;;0.57;0.45;;;;;;;;;;5028742;28;20119;-73
2021/12/13 14:58:58;;;;;;;0.43;0.43;;;;;;;;;;5032580;28;20021;-73
2021/12/13 15:01:34;;;;;;;1.35;0.47;;;;;;;;;;5035015;28;20483;-73
2021/12/13 15:04:04;;;;;;;2.72;0.75;;;;;;;;;;5024265;28;20453;-73
2021/12/13 15:06:31;;;;;;;0.20;0.20;;;;;;;;;;5022068;28;20112;-73
2021/12/13 15:09:00;;;;;;;0.30;0.30;;;;;;;;;;5023739;28;20029;-73
2021/12/13 15:11:33;;;;;;;0.10;0.10;;;;;;;;;;5040379;28;20051;-74
2021/12/13 15:14:03;;;;;;;0.40;0.40;;;;;;;;;;5037967;28;20223;-74
2021/12/13 15:16:35;;;;;;;0.45;0.45;;;;;;;;;;5030673;28;20025;-74
2021/12/13 15:19:03;;;;;;;0.70;0.63;;;;;;;;;;5036331;28;20021;-73